VBV119 LEMG-LEVC
Flight info
| Callsign | VBV119 |
|---|---|
| Flight time | 0h 50m |
| Altitude | 30000 |
| Route | RIXUR N851 RESTU N860 NARGO |
| Aircraft | B739/M-SDE2E3FGHIRWXY/LB1 |
Departure
| Time | 2026-05-04 17:22 |
|---|---|
| Airport | Málaga-Costa del Sol Airport (LEMG) |
Arrival
| Time | 2026-05-04 18:12 |
|---|---|
| Airport | Valencia Airport (LEVC) |
| Time | Latitude | Longitude | Altitude | Speed | Heading |
|---|---|---|---|---|---|
| 2026-05-04 16:51 | 36.68119 | -4.49071 | 46 ft | 0 kts | 28° |
| 2026-05-04 17:12 | 36.68090 | -4.49090 | 43 ft | 2 kts | 27° |
| 2026-05-04 17:13 | 36.68067 | -4.49126 | 44 ft | 1 kts | 123° |
| 2026-05-04 17:14 | 36.68068 | -4.49127 | 40 ft | 0 kts | 123° |
| 2026-05-04 17:16 | 36.68043 | -4.49078 | 42 ft | 5 kts | 122° |
| 2026-05-04 17:16 | 36.67973 | -4.48916 | 41 ft | 8 kts | 117° |
| 2026-05-04 17:17 | 36.67947 | -4.48854 | 41 ft | 8 kts | 117° |
| 2026-05-04 17:17 | 36.67875 | -4.48682 | 42 ft | 7 kts | 118° |
| 2026-05-04 17:18 | 36.67852 | -4.48627 | 42 ft | 7 kts | 117° |
| 2026-05-04 17:18 | 36.67808 | -4.48521 | 43 ft | 7 kts | 117° |
| 2026-05-04 17:19 | 36.67762 | -4.48411 | 43 ft | 9 kts | 118° |
| 2026-05-04 17:19 | 36.67703 | -4.48274 | 43 ft | 9 kts | 118° |
| 2026-05-04 17:20 | 36.67727 | -4.48154 | 43 ft | 8 kts | 29° |
| 2026-05-04 17:20 | 36.67830 | -4.48091 | 40 ft | 9 kts | 26° |
| 2026-05-04 17:20 | 36.67889 | -4.48055 | 39 ft | 10 kts | 26° |
| 2026-05-04 17:21 | 36.67989 | -4.48133 | 39 ft | 16 kts | 297° |
| 2026-05-04 17:21 | 36.68629 | -4.49673 | 122 ft | 166 kts | 296° |
| 2026-05-04 17:22 | 36.69253 | -4.50944 | 810 ft | 179 kts | 299° |
| 2026-05-04 17:22 | 36.69497 | -4.52375 | 1851 ft | 172 kts | 261° |
| 2026-05-04 17:23 | 36.71619 | -4.56008 | 3660 ft | 211 kts | 330° |
| 2026-05-04 17:23 | 36.72876 | -4.56994 | 4383 ft | 217 kts | 322° |
| 2026-05-04 17:23 | 36.75209 | -4.59409 | 6033 ft | 223 kts | 333° |
| 2026-05-04 17:24 | 36.76730 | -4.59906 | 6787 ft | 229 kts | 344° |
| 2026-05-04 17:24 | 36.81562 | -4.61003 | 8965 ft | 252 kts | 13° |
| 2026-05-04 17:25 | 36.83159 | -4.59904 | 9416 ft | 276 kts | 38° |
| 2026-05-04 17:25 | 36.86113 | -4.56598 | 10763 ft | 291 kts | 40° |
| 2026-05-04 17:26 | 36.89173 | -4.53141 | 12187 ft | 301 kts | 39° |
| 2026-05-04 17:26 | 36.93982 | -4.47810 | 14316 ft | 316 kts | 38° |
| 2026-05-04 17:27 | 36.97284 | -4.44073 | 15658 ft | 326 kts | 49° |
| 2026-05-04 17:27 | 36.99000 | -4.38612 | 16305 ft | 361 kts | 79° |
| 2026-05-04 17:28 | 37.00007 | -4.32083 | 16803 ft | 398 kts | 80° |
| 2026-05-04 17:29 | 37.01614 | -4.21726 | 18718 ft | 410 kts | 79° |
| 2026-05-04 17:29 | 37.03325 | -4.11124 | 20479 ft | 421 kts | 79° |
| 2026-05-04 17:30 | 37.05094 | -4.00165 | 22159 ft | 433 kts | 79° |
| 2026-05-04 17:31 | 37.06294 | -3.92695 | 23225 ft | 442 kts | 79° |
| 2026-05-04 17:31 | 37.08125 | -3.81227 | 24613 ft | 455 kts | 79° |
| 2026-05-04 17:32 | 37.09372 | -3.73375 | 25445 ft | 463 kts | 79° |
| 2026-05-04 17:33 | 37.11592 | -3.61502 | 26610 ft | 476 kts | 64° |
| 2026-05-04 17:33 | 37.13059 | -3.57772 | 27044 ft | 478 kts | 61° |
| 2026-05-04 17:34 | 37.17692 | -3.46557 | 28514 ft | 484 kts | 61° |
| 2026-05-04 17:34 | 37.19204 | -3.42781 | 29024 ft | 485 kts | 62° |
| 2026-05-04 17:35 | 37.23691 | -3.31389 | 30003 ft | 491 kts | 62° |
| 2026-05-04 17:35 | 37.26698 | -3.23728 | 29996 ft | 485 kts | 62° |
| 2026-05-04 17:36 | 37.29686 | -3.16084 | 29997 ft | 489 kts | 62° |
| 2026-05-04 17:36 | 37.32686 | -3.08385 | 29992 ft | 492 kts | 62° |
| 2026-05-04 17:37 | 37.35704 | -3.00623 | 29988 ft | 494 kts | 62° |
| 2026-05-04 17:37 | 37.38696 | -2.92909 | 29988 ft | 493 kts | 62° |
| 2026-05-04 17:38 | 37.41689 | -2.85176 | 29961 ft | 491 kts | 62° |
| 2026-05-04 17:38 | 37.44663 | -2.77483 | 29970 ft | 487 kts | 62° |
| 2026-05-04 17:39 | 37.49085 | -2.66021 | 29974 ft | 484 kts | 63° |
| 2026-05-04 17:39 | 37.52025 | -2.58373 | 29975 ft | 485 kts | 63° |
| 2026-05-04 17:40 | 37.54962 | -2.50714 | 29963 ft | 486 kts | 63° |
| 2026-05-04 17:40 | 37.57902 | -2.43025 | 29973 ft | 486 kts | 63° |
| 2026-05-04 17:41 | 37.60825 | -2.35368 | 29969 ft | 487 kts | 63° |
| 2026-05-04 17:41 | 37.63761 | -2.27655 | 29965 ft | 488 kts | 63° |
| 2026-05-04 17:42 | 37.66205 | -2.21231 | 29953 ft | 488 kts | 63° |
| 2026-05-04 17:42 | 37.69131 | -2.13524 | 29948 ft | 485 kts | 63° |
| 2026-05-04 17:43 | 37.71944 | -2.06091 | 29944 ft | 484 kts | 63° |
| 2026-05-04 17:43 | 37.74841 | -1.98421 | 29936 ft | 484 kts | 63° |
| 2026-05-04 17:44 | 37.77730 | -1.90748 | 29929 ft | 483 kts | 63° |
| 2026-05-04 17:44 | 37.80615 | -1.83070 | 29922 ft | 484 kts | 63° |
| 2026-05-04 17:45 | 37.83499 | -1.75374 | 29915 ft | 484 kts | 64° |
| 2026-05-04 17:45 | 37.86383 | -1.67658 | 29908 ft | 485 kts | 64° |
| 2026-05-04 17:46 | 37.89361 | -1.60010 | 29890 ft | 484 kts | 55° |
| 2026-05-04 17:46 | 37.91379 | -1.56699 | 29905 ft | 479 kts | 42° |
| 2026-05-04 17:46 | 37.93832 | -1.53877 | 29897 ft | 473 kts | 31° |
| 2026-05-04 17:47 | 37.99468 | -1.49808 | 29907 ft | 465 kts | 20° |
| 2026-05-04 17:47 | 38.05237 | -1.46094 | 29896 ft | 466 kts | 20° |
| 2026-05-04 17:48 | 38.11003 | -1.42319 | 29905 ft | 466 kts | 21° |
| 2026-05-04 17:48 | 38.16622 | -1.38565 | 29902 ft | 453 kts | 21° |
| 2026-05-04 17:49 | 38.22194 | -1.34825 | 29918 ft | 453 kts | 21° |
| 2026-05-04 17:49 | 38.24996 | -1.32946 | 29542 ft | 457 kts | 22° |
| 2026-05-04 17:49 | 38.27797 | -1.31063 | 29132 ft | 453 kts | 22° |
| 2026-05-04 17:50 | 38.30571 | -1.29194 | 28680 ft | 448 kts | 22° |
| 2026-05-04 17:50 | 38.33311 | -1.27346 | 28200 ft | 444 kts | 22° |
| 2026-05-04 17:50 | 38.36032 | -1.25511 | 27743 ft | 440 kts | 22° |
| 2026-05-04 17:50 | 38.38725 | -1.23694 | 27270 ft | 437 kts | 22° |
| 2026-05-04 17:51 | 38.41403 | -1.21887 | 26815 ft | 433 kts | 22° |
| 2026-05-04 17:51 | 38.44056 | -1.20095 | 26366 ft | 430 kts | 22° |
| 2026-05-04 17:51 | 38.46688 | -1.18316 | 25917 ft | 427 kts | 22° |
| 2026-05-04 17:51 | 38.49303 | -1.16547 | 25476 ft | 424 kts | 23° |
| 2026-05-04 17:52 | 38.51902 | -1.14787 | 25045 ft | 421 kts | 23° |
| 2026-05-04 17:52 | 38.54447 | -1.13063 | 24612 ft | 418 kts | 23° |
| 2026-05-04 17:52 | 38.57008 | -1.11326 | 24186 ft | 416 kts | 23° |
| 2026-05-04 17:52 | 38.59554 | -1.09598 | 23753 ft | 414 kts | 23° |
| 2026-05-04 17:53 | 38.62090 | -1.07875 | 23268 ft | 412 kts | 23° |
| 2026-05-04 17:53 | 38.64614 | -1.06159 | 22793 ft | 410 kts | 23° |
| 2026-05-04 17:53 | 38.67125 | -1.04449 | 22352 ft | 407 kts | 23° |
| 2026-05-04 17:53 | 38.69618 | -1.02751 | 21898 ft | 405 kts | 23° |
| 2026-05-04 17:54 | 38.72092 | -1.01065 | 21460 ft | 402 kts | 23° |
| 2026-05-04 17:54 | 38.74552 | -0.99388 | 21040 ft | 399 kts | 23° |
| 2026-05-04 17:54 | 38.76987 | -0.97725 | 20629 ft | 396 kts | 23° |
| 2026-05-04 17:54 | 38.79408 | -0.96072 | 20203 ft | 393 kts | 23° |
| 2026-05-04 17:55 | 38.81813 | -0.94428 | 19783 ft | 391 kts | 23° |
| 2026-05-04 17:55 | 38.84203 | -0.92794 | 19373 ft | 388 kts | 23° |
| 2026-05-04 17:55 | 38.86581 | -0.91167 | 18961 ft | 386 kts | 23° |
| 2026-05-04 17:55 | 38.88947 | -0.89547 | 18537 ft | 385 kts | 23° |
| 2026-05-04 17:56 | 38.91290 | -0.87942 | 18105 ft | 383 kts | 22° |
| 2026-05-04 17:56 | 38.93636 | -0.86332 | 17635 ft | 381 kts | 23° |
| 2026-05-04 17:56 | 38.95968 | -0.84731 | 17187 ft | 378 kts | 23° |
| 2026-05-04 17:56 | 38.98276 | -0.83145 | 16780 ft | 374 kts | 23° |
| 2026-05-04 17:57 | 39.00545 | -0.81583 | 16369 ft | 366 kts | 23° |
| 2026-05-04 17:57 | 39.02770 | -0.80051 | 15981 ft | 359 kts | 23° |
| 2026-05-04 17:57 | 39.04951 | -0.78548 | 15570 ft | 353 kts | 23° |
| 2026-05-04 17:57 | 39.07093 | -0.77072 | 15200 ft | 346 kts | 24° |
| 2026-05-04 17:58 | 39.09209 | -0.75614 | 14822 ft | 344 kts | 24° |
| 2026-05-04 17:58 | 39.11316 | -0.74163 | 14449 ft | 342 kts | 24° |
| 2026-05-04 17:58 | 39.13407 | -0.72720 | 14060 ft | 339 kts | 24° |
| 2026-05-04 17:58 | 39.15478 | -0.71290 | 13679 ft | 337 kts | 24° |
| 2026-05-04 17:59 | 39.17540 | -0.69865 | 13228 ft | 336 kts | 24° |
| 2026-05-04 17:59 | 39.19583 | -0.68468 | 12814 ft | 327 kts | 20° |
| 2026-05-04 17:59 | 39.23641 | -0.68789 | 12047 ft | 287 kts | 317° |
| 2026-05-04 18:00 | 39.24774 | -0.70773 | 11821 ft | 270 kts | 289° |
| 2026-05-04 18:00 | 39.25563 | -0.72963 | 11500 ft | 270 kts | 297° |
| 2026-05-04 18:00 | 39.26645 | -0.74910 | 11199 ft | 271 kts | 308° |
| 2026-05-04 18:00 | 39.27999 | -0.76630 | 10923 ft | 275 kts | 315° |
| 2026-05-04 18:01 | 39.29502 | -0.78201 | 10623 ft | 283 kts | 318° |
| 2026-05-04 18:01 | 39.31112 | -0.79715 | 10322 ft | 287 kts | 321° |
| 2026-05-04 18:01 | 39.32750 | -0.81116 | 10187 ft | 279 kts | 323° |
| 2026-05-04 18:02 | 39.36088 | -0.83449 | 9756 ft | 271 kts | 330° |
| 2026-05-04 18:02 | 39.37822 | -0.84400 | 9435 ft | 271 kts | 334° |
| 2026-05-04 18:02 | 39.39596 | -0.85207 | 9118 ft | 270 kts | 338° |
| 2026-05-04 18:02 | 39.41401 | -0.85868 | 8809 ft | 269 kts | 341° |
| 2026-05-04 18:03 | 39.43233 | -0.86380 | 8492 ft | 270 kts | 345° |
| 2026-05-04 18:03 | 39.45086 | -0.86744 | 8180 ft | 269 kts | 349° |
| 2026-05-04 18:03 | 39.46953 | -0.86955 | 7881 ft | 269 kts | 352° |
| 2026-05-04 18:03 | 39.48825 | -0.87016 | 7570 ft | 269 kts | 356° |
| 2026-05-04 18:04 | 39.50695 | -0.86924 | 7297 ft | 268 kts | 0° |
| 2026-05-04 18:04 | 39.52530 | -0.86683 | 6975 ft | 262 kts | 3° |
| 2026-05-04 18:04 | 39.55997 | -0.85814 | 6395 ft | 245 kts | 10° |
| 2026-05-04 18:05 | 39.57615 | -0.85242 | 6075 ft | 236 kts | 12° |
| 2026-05-04 18:05 | 39.59148 | -0.84588 | 5800 ft | 228 kts | 17° |
| 2026-05-04 18:05 | 39.60410 | -0.83390 | 5500 ft | 230 kts | 55° |
| 2026-05-04 18:05 | 39.60773 | -0.81418 | 5313 ft | 228 kts | 97° |
| 2026-05-04 18:06 | 39.59887 | -0.77448 | 4782 ft | 228 kts | 109° |
| 2026-05-04 18:06 | 39.59331 | -0.75575 | 4467 ft | 223 kts | 114° |
| 2026-05-04 18:06 | 39.58694 | -0.73785 | 4188 ft | 215 kts | 116° |
| 2026-05-04 18:07 | 39.58042 | -0.72065 | 3911 ft | 209 kts | 117° |
| 2026-05-04 18:07 | 39.57404 | -0.70397 | 3616 ft | 204 kts | 117° |
| 2026-05-04 18:07 | 39.56777 | -0.68761 | 3367 ft | 202 kts | 117° |
| 2026-05-04 18:07 | 39.56160 | -0.67147 | 3114 ft | 197 kts | 117° |
| 2026-05-04 18:08 | 39.55567 | -0.65592 | 2869 ft | 187 kts | 118° |
| 2026-05-04 18:08 | 39.55005 | -0.64120 | 2609 ft | 177 kts | 117° |
| 2026-05-04 18:08 | 39.54476 | -0.62733 | 2401 ft | 163 kts | 117° |
| 2026-05-04 18:08 | 39.53981 | -0.61436 | 2175 ft | 157 kts | 117° |
| 2026-05-04 18:09 | 39.53079 | -0.59069 | 1811 ft | 140 kts | 116° |
| 2026-05-04 18:09 | 39.52229 | -0.56837 | 1446 ft | 138 kts | 115° |
| 2026-05-04 18:10 | 39.51814 | -0.55748 | 1267 ft | 132 kts | 116° |
| 2026-05-04 18:10 | 39.51402 | -0.54668 | 1100 ft | 137 kts | 115° |
| 2026-05-04 18:10 | 39.50985 | -0.53570 | 920 ft | 134 kts | 115° |
| 2026-05-04 18:10 | 39.50578 | -0.52500 | 726 ft | 133 kts | 114° |
| 2026-05-04 18:11 | 39.50167 | -0.51421 | 540 ft | 133 kts | 112° |
| 2026-05-04 18:11 | 39.49759 | -0.50345 | 365 ft | 134 kts | 112° |
| 2026-05-04 18:11 | 39.49354 | -0.49280 | 245 ft | 129 kts | 112° |
| 2026-05-04 18:11 | 39.49017 | -0.48353 | 215 ft | 94 kts | 116° |
| 2026-05-04 18:12 | 39.48791 | -0.47764 | 206 ft | 52 kts | 115° |
| 2026-05-04 18:12 | 39.48697 | -0.47515 | 202 ft | 10 kts | 117° |
| 2026-05-04 18:12 | 39.48672 | -0.47449 | 206 ft | 10 kts | 114° |
| 2026-05-04 18:12 | 39.48654 | -0.47346 | 194 ft | 13 kts | 88° |
| 2026-05-04 18:13 | 39.48682 | -0.47234 | 201 ft | 15 kts | 53° |
| 2026-05-04 18:13 | 39.48691 | -0.47221 | 202 ft | 0 kts | 47° |
| 2026-05-04 18:13 | 39.48702 | -0.47208 | 193 ft | 7 kts | 39° |
| 2026-05-04 18:14 | 39.48762 | -0.47184 | 201 ft | 10 kts | 357° |
| 2026-05-04 18:14 | 39.48827 | -0.47212 | 195 ft | 10 kts | 338° |
| 2026-05-04 18:14 | 39.48898 | -0.47219 | 196 ft | 11 kts | 18° |
| 2026-05-04 18:15 | 39.48967 | -0.47184 | 203 ft | 0 kts | 19° |